Time;durP1;ratioP1;P1;durP2;ratioP2;P2;SDS_P1;SDS_P2;PMS_P1;PMS_P2;Temp;Humidity;BMP_temperature;BMP_pressure;BME280_temperature;BME280_humidity;BME280_pressure;Samples;Min_cycle;Max_cycle;Signal;HPM_P1;HPM_P2
2023/02/23 00:01:36;;;;;;;40.00;28.10;;;12.90;99.90;;;;;;5096032;27;20454;-66
2023/02/23 00:04:03;;;;;;;37.03;26.90;;;12.80;99.90;;;;;;5094644;27;20489;-66
2023/02/23 00:06:30;;;;;;;39.90;26.40;;;12.80;99.90;;;;;;5096505;27;20562;-66
2023/02/23 00:08:57;;;;;;;35.77;27.37;;;12.90;99.90;;;;;;5088934;27;20473;-66
2023/02/23 00:11:22;;;;;;;41.27;27.40;;;12.90;99.90;;;;;;5093440;27;20907;-66
2023/02/23 00:13:49;;;;;;;38.60;29.50;;;12.90;99.90;;;;;;5094055;27;20561;-66
2023/02/23 00:16:18;;;;;;;38.53;27.60;;;12.90;99.90;;;;;;5093178;27;20209;-66
2023/02/23 00:18:47;;;;;;;40.00;28.20;;;12.90;99.90;;;;;;5095198;27;20472;-66
2023/02/23 00:21:23;;;;;;;39.13;27.27;;;12.90;99.90;;;;;;5094193;27;20451;-65
2023/02/23 00:23:57;;;;;;;42.53;29.37;;;12.90;99.90;;;;;;5096811;27;20534;-66
2023/02/23 00:26:29;;;;;;;37.67;28.50;;;12.90;99.90;;;;;;5095891;27;20522;-66
2023/02/23 00:28:54;;;;;;;42.20;28.33;;;12.90;99.90;;;;;;5090370;28;21232;-66
2023/02/23 00:31:24;;;;;;;42.90;29.47;;;12.90;99.90;;;;;;5094271;27;20431;-66
2023/02/23 00:33:55;;;;;;;43.30;30.63;;;12.90;99.90;;;;;;5094858;27;20185;-66
2023/02/23 00:36:24;;;;;;;36.00;27.80;;;12.90;99.90;;;;;;5090722;28;21119;-66
2023/02/23 00:38:59;;;;;;;42.10;28.10;;;12.80;99.90;;;;;;5092046;27;20590;-66
2023/02/23 00:41:27;;;;;;;39.77;29.50;;;12.80;99.90;;;;;;5097925;27;20423;-66
2023/02/23 00:43:54;;;;;;;41.80;28.80;;;12.80;99.90;;;;;;5094948;27;21034;-66
2023/02/23 00:46:21;;;;;;;45.13;28.90;;;12.80;99.90;;;;;;5087656;28;20563;-66
2023/02/23 00:48:48;;;;;;;39.00;30.00;;;12.80;99.90;;;;;;5096312;27;20912;-66
2023/02/23 00:51:15;;;;;;;43.10;29.80;;;12.80;99.90;;;;;;5096463;27;20940;-67
2023/02/23 00:53:41;;;;;;;46.43;29.40;;;12.80;99.90;;;;;;5095646;27;20471;-67
2023/02/23 00:56:09;;;;;;;39.30;29.77;;;12.80;99.90;;;;;;5074428;28;20509;-67
2023/02/23 00:58:35;;;;;;;42.60;29.37;;;12.80;99.90;;;;;;5091772;28;20495;-67
2023/02/23 01:01:00;;;;;;;37.33;27.40;;;12.90;99.90;;;;;;5090796;27;20987;-67
2023/02/23 01:03:29;;;;;;;37.53;28.37;;;12.80;99.90;;;;;;5091338;27;21025;-66
2023/02/23 01:06:05;;;;;;;40.70;28.93;;;12.80;99.90;;;;;;5086743;28;20766;-66
2023/02/23 01:08:35;;;;;;;40.70;28.07;;;12.90;99.90;;;;;;5093247;28;20534;-66
2023/02/23 01:11:13;;;;;;;45.13;31.70;;;12.90;99.90;;;;;;5093238;28;20442;-66
2023/02/23 01:13:40;;;;;;;44.40;30.67;;;12.90;99.90;;;;;;5092510;27;20478;-66
2023/02/23 01:16:11;;;;;;;35.97;29.07;;;12.90;99.90;;;;;;5091206;27;20509;-66
2023/02/23 01:18:39;;;;;;;36.57;26.97;;;12.90;99.90;;;;;;5094060;27;20477;-66
2023/02/23 01:21:12;;;;;;;41.27;29.43;;;12.90;99.90;;;;;;5090851;28;20452;-66
2023/02/23 01:23:38;;;;;;;42.70;30.30;;;12.90;99.90;;;;;;5089786;28;20500;-67
2023/02/23 01:26:03;;;;;;;39.87;29.03;;;12.90;99.90;;;;;;5094170;28;20451;-67
2023/02/23 01:28:29;;;;;;;38.57;29.50;;;12.90;99.90;;;;;;5093001;28;20598;-67
2023/02/23 01:30:54;;;;;;;35.03;27.40;;;12.90;99.90;;;;;;5094505;27;20178;-67
2023/02/23 01:33:20;;;;;;;43.87;30.27;;;12.90;99.90;;;;;;5097144;28;20261;-66
2023/02/23 01:35:56;;;;;;;42.80;29.40;;;12.80;99.90;;;;;;5093863;27;20182;-67
2023/02/23 01:38:22;;;;;;;36.80;28.53;;;12.80;99.90;;;;;;5092411;28;20243;-67
2023/02/23 01:40:48;;;;;;;41.53;29.30;;;12.80;99.90;;;;;;5094913;28;20439;-67
2023/02/23 01:43:17;;;;;;;41.20;31.03;;;12.80;99.90;;;;;;5093614;27;20227;-66
2023/02/23 01:45:44;;;;;;;39.83;27.47;;;12.80;99.90;;;;;;5091760;27;20738;-66
2023/02/23 01:48:13;;;;;;;39.70;28.73;;;12.80;99.90;;;;;;5091498;27;22002;-67
2023/02/23 01:50:52;;;;;;;38.60;28.70;;;12.80;99.90;;;;;;5089352;27;20542;-67
2023/02/23 01:53:20;;;;;;;42.23;29.23;;;12.80;99.90;;;;;;5094056;28;20802;-66
2023/02/23 01:55:53;;;;;;;42.10;30.00;;;12.80;99.90;;;;;;5090681;28;20435;-67
2023/02/23 01:58:21;;;;;;;42.73;28.93;;;12.80;99.90;;;;;;5088024;28;20516;-66
2023/02/23 02:00:53;;;;;;;47.53;30.43;;;12.90;99.90;;;;;;5090967;27;20423;-66
2023/02/23 02:03:36;;;;;;;44.13;29.37;;;12.90;99.90;;;;;;5089531;27;20459;-66
2023/02/23 02:06:03;;;;;;;43.47;29.83;;;12.80;99.90;;;;;;5089758;27;20463;-66
2023/02/23 02:08:31;;;;;;;39.73;29.53;;;12.80;99.90;;;;;;5087582;28;20451;-66
2023/02/23 02:10:57;;;;;;;42.47;28.53;;;12.70;99.90;;;;;;5091790;27;20500;-66
2023/02/23 02:13:28;;;;;;;43.83;30.97;;;12.70;99.90;;;;;;5089043;28;20823;-66
2023/02/23 02:16:15;;;;;;;40.10;29.07;;;12.70;99.90;;;;;;5089337;27;20179;-66
2023/02/23 02:19:17;;;;;;;40.20;27.33;;;12.70;99.90;;;;;;5087763;28;20968;-66
2023/02/23 02:22:24;;;;;;;38.47;27.77;;;12.70;99.90;;;;;;5088161;28;20947;-66
2023/02/23 02:25:20;;;;;;;41.70;25.90;;;12.70;99.90;;;;;;4997754;28;20420;-66
2023/02/23 02:28:07;;;;;;;42.70;26.10;;;12.70;99.90;;;;;;4998967;28;20531;-66
2023/02/23 02:31:01;;;;;;;44.83;28.17;;;12.70;99.90;;;;;;5069611;27;20452;-66
2023/02/23 02:33:57;;;;;;;38.43;27.30;;;12.70;99.90;;;;;;5093019;27;20830;-66
2023/02/23 02:36:56;;;;;;;38.33;27.63;;;12.70;99.90;;;;;;5089865;27;21106;-66
2023/02/23 02:39:43;;;;;;;42.13;27.70;;;12.60;99.90;;;;;;5089101;27;20462;-66
2023/02/23 02:42:33;;;;;;;43.97;27.00;;;12.70;99.90;;;;;;5091649;28;20442;-66
2023/02/23 02:45:02;;;;;;;37.70;26.60;;;12.70;99.90;;;;;;5091282;28;21091;-66
2023/02/23 02:47:41;;;;;;;36.90;28.00;;;12.70;99.90;;;;;;5090731;27;20481;-66
2023/02/23 02:50:09;;;;;;;39.67;29.10;;;12.70;99.90;;;;;;5084274;27;20478;-66
2023/02/23 02:52:48;;;;;;;38.90;26.60;;;12.70;99.90;;;;;;5085627;28;22025;-66
2023/02/23 02:55:22;;;;;;;41.07;28.03;;;12.70;99.90;;;;;;5070350;28;21429;-66
2023/02/23 02:57:50;;;;;;;40.67;27.80;;;12.70;99.90;;;;;;5088007;27;20468;-66
2023/02/23 04:17:54;;;;;;;31.30;21.83;;;12.40;99.90;;;;;;5087063;28;21405;-66
2023/02/23 04:20:20;;;;;;;32.20;23.60;;;12.40;99.90;;;;;;5087014;28;20443;-66
2023/02/23 04:22:46;;;;;;;30.57;21.03;;;12.30;99.90;;;;;;5093688;28;20775;-65
2023/02/23 04:25:14;;;;;;;32.90;23.80;;;12.40;99.90;;;;;;5087646;28;20816;-66
2023/02/23 04:27:40;;;;;;;30.20;22.60;;;12.30;99.90;;;;;;5092351;28;20216;-66
2023/02/23 04:30:06;;;;;;;34.30;21.60;;;12.30;99.90;;;;;;5089039;28;21048;-66
2023/02/23 04:32:32;;;;;;;30.47;22.70;;;12.30;99.90;;;;;;5085930;27;20175;-67
2023/02/23 04:34:57;;;;;;;34.57;22.10;;;12.40;99.90;;;;;;5093257;28;21394;-66
2023/02/23 04:37:23;;;;;;;33.30;22.80;;;12.40;99.90;;;;;;5092912;27;20194;-66
2023/02/23 04:39:49;;;;;;;31.13;24.53;;;12.40;99.90;;;;;;5095331;27;20178;-66
2023/02/23 04:42:16;;;;;;;29.43;21.90;;;12.30;99.90;;;;;;5099104;27;20419;-66
2023/02/23 04:44:42;;;;;;;30.73;23.07;;;12.30;99.90;;;;;;5089779;28;20485;-67
2023/02/23 04:47:08;;;;;;;29.00;23.03;;;12.30;99.90;;;;;;5094605;28;20984;-66
2023/02/23 04:49:33;;;;;;;34.00;22.07;;;12.30;99.90;;;;;;5094758;27;20257;-66
2023/02/23 04:51:59;;;;;;;28.30;20.70;;;12.30;99.90;;;;;;5096372;27;20262;-66
2023/02/23 04:54:25;;;;;;;31.03;22.43;;;12.40;99.90;;;;;;5090325;27;20269;-66
2023/02/23 04:56:51;;;;;;;32.40;22.50;;;12.30;99.90;;;;;;5094598;27;20209;-66
2023/02/23 04:59:17;;;;;;;28.37;19.80;;;12.30;99.90;;;;;;5095983;28;20457;-66
2023/02/23 05:01:42;;;;;;;30.87;22.03;;;12.30;99.90;;;;;;5095729;27;20450;-65
2023/02/23 05:04:08;;;;;;;27.90;19.63;;;12.30;99.90;;;;;;5093434;27;20440;-66
2023/02/23 05:06:33;;;;;;;31.20;20.30;;;12.30;99.90;;;;;;5091950;28;20197;-66
2023/02/23 05:08:59;;;;;;;32.53;20.40;;;12.40;99.90;;;;;;5090246;28;20186;-66
2023/02/23 05:11:26;;;;;;;30.70;20.20;;;12.40;99.90;;;;;;5090781;28;20189;-66
2023/02/23 05:13:53;;;;;;;28.93;19.67;;;12.40;99.90;;;;;;5089753;28;20182;-66
2023/02/23 05:16:18;;;;;;;25.70;20.00;;;12.40;99.90;;;;;;5091194;27;21034;-66
2023/02/23 05:18:44;;;;;;;28.50;20.50;;;12.40;99.90;;;;;;5086424;27;20930;-66
2023/02/23 05:21:10;;;;;;;31.47;19.90;;;12.40;99.90;;;;;;5090738;27;20205;-67
2023/02/23 05:23:36;;;;;;;29.90;19.97;;;12.40;99.90;;;;;;5089338;28;20582;-66
2023/02/23 05:26:08;;;;;;;27.70;19.10;;;12.40;99.90;;;;;;5088571;28;20542;-67
2023/02/23 05:28:36;;;;;;;26.67;20.10;;;12.40;99.90;;;;;;5090642;28;20846;-67
2023/02/23 05:31:02;;;;;;;28.80;20.27;;;12.30;99.90;;;;;;5092531;28;20435;-66
2023/02/23 05:33:29;;;;;;;26.23;19.33;;;12.30;99.90;;;;;;5092025;27;20431;-66
2023/02/23 05:35:55;;;;;;;28.33;19.87;;;12.30;99.90;;;;;;5075440;28;20436;-67
2023/02/23 05:38:21;;;;;;;25.87;19.80;;;12.20;99.90;;;;;;5092609;28;20482;-66
2023/02/23 05:40:46;;;;;;;30.23;22.27;;;12.20;99.90;;;;;;5093024;28;20516;-66
2023/02/23 05:43:12;;;;;;;33.20;21.10;;;12.20;99.90;;;;;;5093492;27;20519;-66
2023/02/23 05:45:42;;;;;;;30.93;20.33;;;12.20;99.90;;;;;;5091028;28;20273;-66
2023/02/23 05:48:09;;;;;;;28.53;20.60;;;12.30;99.90;;;;;;5094092;28;20177;-66
2023/02/23 05:50:35;;;;;;;30.53;19.90;;;12.30;99.90;;;;;;5092163;28;20446;-66
2023/02/23 05:53:00;;;;;;;26.47;18.60;;;12.30;99.90;;;;;;5091946;28;20452;-67
2023/02/23 05:55:26;;;;;;;28.60;18.90;;;12.30;99.90;;;;;;5090511;27;20435;-66
2023/02/23 05:57:52;;;;;;;32.67;20.20;;;12.30;99.90;;;;;;5090473;28;20202;-66
2023/02/23 06:00:18;;;;;;;26.13;18.80;;;12.30;99.90;;;;;;5090816;27;20191;-66
2023/02/23 06:02:43;;;;;;;25.63;18.40;;;12.40;99.90;;;;;;5090488;28;21145;-67
2023/02/23 06:05:10;;;;;;;27.27;18.80;;;12.40;99.90;;;;;;5090189;27;20475;-67
2023/02/23 06:07:36;;;;;;;22.23;17.80;;;12.40;99.90;;;;;;5068224;28;20198;-66
2023/02/23 06:10:02;;;;;;;27.80;19.57;;;12.30;99.90;;;;;;5088610;28;20442;-66
2023/02/23 06:12:28;;;;;;;27.30;17.90;;;12.30;99.90;;;;;;5088009;28;20213;-66
2023/02/23 06:14:53;;;;;;;30.30;20.33;;;12.30;99.90;;;;;;5090383;27;20428;-66
2023/02/23 06:17:19;;;;;;;26.10;19.07;;;12.40;99.90;;;;;;5090381;28;20299;-68
2023/02/23 06:19:45;;;;;;;27.17;19.23;;;12.40;99.90;;;;;;5088522;28;20240;-66
2023/02/23 06:22:10;;;;;;;26.27;18.47;;;12.30;99.90;;;;;;5089721;28;20206;-67
2023/02/23 06:24:36;;;;;;;26.50;18.47;;;12.30;99.90;;;;;;5093124;27;20205;-66
2023/02/23 06:27:01;;;;;;;24.83;19.97;;;12.40;99.90;;;;;;5092436;27;20232;-67
2023/02/23 06:29:27;;;;;;;27.17;19.60;;;12.40;99.90;;;;;;5091950;28;20197;-66
2023/02/23 06:31:52;;;;;;;26.60;19.00;;;12.40;99.90;;;;;;5086169;28;20178;-67
2023/02/23 06:34:18;;;;;;;29.27;20.10;;;12.40;99.90;;;;;;5093014;28;20185;-66
2023/02/23 06:36:44;;;;;;;27.87;18.33;;;12.40;99.90;;;;;;5086245;27;20270;-67
2023/02/23 06:39:10;;;;;;;29.90;19.63;;;12.40;99.90;;;;;;5088853;27;20226;-66
2023/02/23 06:41:36;;;;;;;24.93;18.23;;;12.40;99.90;;;;;;5088814;28;20185;-67
2023/02/23 06:44:02;;;;;;;26.90;18.77;;;12.40;99.90;;;;;;5087499;28;20440;-67
2023/02/23 06:46:27;;;;;;;26.17;18.30;;;12.50;99.90;;;;;;5087286;27;20213;-67
2023/02/23 06:48:58;;;;;;;23.80;18.90;;;12.50;99.90;;;;;;5090202;28;20190;-66
2023/02/23 06:51:24;;;;;;;22.90;17.97;;;12.50;99.90;;;;;;5089993;28;20185;-66
2023/02/23 06:53:53;;;;;;;25.83;16.10;;;12.40;99.90;;;;;;5091256;27;20795;-67
2023/02/23 06:56:19;;;;;;;27.03;17.93;;;12.40;99.90;;;;;;5085940;28;20493;-67
2023/02/23 06:58:45;;;;;;;28.87;18.43;;;12.40;99.90;;;;;;5088734;28;20475;-66
2023/02/23 07:01:14;;;;;;;23.43;16.93;;;12.30;99.90;;;;;;5086512;28;20186;-66
2023/02/23 07:03:40;;;;;;;24.30;17.87;;;12.30;99.90;;;;;;5087959;27;20446;-67
2023/02/23 07:06:06;;;;;;;23.90;17.07;;;12.30;99.90;;;;;;5086173;28;20459;-67
2023/02/23 07:08:32;;;;;;;28.70;18.63;;;12.20;99.90;;;;;;5081593;27;20436;-66
2023/02/23 07:11:14;;;;;;;29.13;18.50;;;12.20;99.90;;;;;;5084309;27;20189;-66
2023/02/23 07:13:41;;;;;;;26.20;17.47;;;12.30;99.90;;;;;;5089227;27;20597;-66
2023/02/23 07:16:07;;;;;;;32.67;18.13;;;12.40;99.90;;;;;;5085564;28;20840;-66
2023/02/23 07:18:33;;;;;;;25.50;17.03;;;12.40;99.90;;;;;;5091158;27;20467;-66
2023/02/23 07:20:58;;;;;;;30.17;20.53;;;12.40;99.90;;;;;;5087707;28;21024;-66
2023/02/23 07:23:24;;;;;;;27.67;20.90;;;12.40;99.90;;;;;;5091495;28;20190;-66
2023/02/23 07:25:55;;;;;;;27.90;18.97;;;12.40;99.90;;;;;;5089538;27;20569;-66
2023/02/23 07:28:21;;;;;;;30.30;20.17;;;12.50;99.90;;;;;;5090002;27;20622;-66
2023/02/23 07:30:48;;;;;;;33.57;22.20;;;12.50;99.90;;;;;;5082424;27;20443;-66
2023/02/23 07:33:14;;;;;;;36.57;21.30;;;12.50;99.90;;;;;;5090256;27;20250;-66
2023/02/23 07:35:41;;;;;;;28.63;21.30;;;12.50;99.90;;;;;;5087552;28;20902;-66
2023/02/23 07:38:06;;;;;;;30.57;21.33;;;12.50;99.90;;;;;;5089413;28;20495;-66
2023/02/23 07:40:32;;;;;;;27.83;17.23;;;12.50;99.90;;;;;;5085418;28;20526;-67
2023/02/23 07:42:58;;;;;;;36.40;21.43;;;12.60;99.90;;;;;;5087994;28;20178;-67
2023/02/23 07:45:24;;;;;;;27.27;20.30;;;12.60;99.90;;;;;;5090106;28;20315;-67
2023/02/23 07:47:50;;;;;;;27.33;20.60;;;12.60;99.90;;;;;;5088459;28;20213;-66
2023/02/23 07:50:15;;;;;;;33.40;20.57;;;12.70;99.90;;;;;;5086526;28;20287;-67
2023/02/23 07:52:42;;;;;;;29.43;21.03;;;12.70;99.90;;;;;;5088241;28;20440;-67
2023/02/23 07:55:09;;;;;;;34.43;20.00;;;12.80;99.90;;;;;;5090374;28;20674;-69
2023/02/23 07:57:35;;;;;;;29.65;20.00;;;12.80;99.90;;;;;;5085745;28;20515;-67
2023/02/23 08:00:00;;;;;;;31.13;21.67;;;12.90;99.90;;;;;;5090197;28;20929;-69
2023/02/23 08:02:31;;;;;;;30.60;22.40;;;12.90;99.90;;;;;;5091223;28;20225;-68
2023/02/23 08:04:57;;;;;;;33.40;21.87;;;12.90;99.90;;;;;;5088710;28;20186;-69
2023/02/23 08:07:24;;;;;;;30.23;20.20;;;12.90;99.90;;;;;;5096109;27;20467;-69
2023/02/23 08:09:51;;;;;;;33.97;24.00;;;12.90;99.90;;;;;;5095820;28;20435;-69
2023/02/23 08:12:17;;;;;;;27.73;21.70;;;12.90;99.90;;;;;;5092268;27;20442;-70
2023/02/23 08:14:42;;;;;;;28.10;19.87;;;13.00;99.90;;;;;;5098213;27;20434;-70
2023/02/23 08:17:09;;;;;;;26.03;19.40;;;12.90;99.90;;;;;;5095139;28;20781;-71
2023/02/23 08:19:34;;;;;;;26.17;19.50;;;13.00;99.90;;;;;;5071263;28;20209;-72
2023/02/23 08:22:00;;;;;;;30.27;21.90;;;13.00;99.90;;;;;;5076254;28;20452;-70
2023/02/23 08:24:28;;;;;;;28.47;20.07;;;13.00;99.90;;;;;;5088802;28;20186;-70
2023/02/23 08:26:53;;;;;;;29.83;20.70;;;12.90;99.90;;;;;;5080952;28;20698;-69
2023/02/23 08:29:20;;;;;;;28.90;21.07;;;12.90;99.90;;;;;;5090872;28;20795;-68
2023/02/23 08:31:45;;;;;;;25.87;19.27;;;12.80;99.90;;;;;;5090298;28;20722;-66
2023/02/23 08:34:11;;;;;;;23.67;19.20;;;12.80;99.90;;;;;;5093272;27;20465;-66
2023/02/23 08:36:38;;;;;;;32.43;18.93;;;12.90;99.90;;;;;;5092474;27;20233;-67
2023/02/23 08:39:06;;;;;;;22.13;18.73;;;12.90;99.90;;;;;;5094502;27;20557;-66
2023/02/23 08:41:32;;;;;;;27.80;21.77;;;12.90;99.90;;;;;;5090906;28;20541;-67
2023/02/23 08:43:58;;;;;;;24.43;18.23;;;12.90;99.90;;;;;;5095655;27;20562;-66
2023/02/23 08:46:23;;;;;;;31.27;21.57;;;12.80;99.90;;;;;;5090464;27;21152;-68
2023/02/23 08:48:49;;;;;;;29.43;18.00;;;12.90;99.90;;;;;;5089870;28;20182;-68
2023/02/23 08:51:15;;;;;;;26.03;16.57;;;13.00;99.90;;;;;;5090722;28;20741;-68
2023/02/23 08:53:40;;;;;;;31.50;19.17;;;13.00;99.90;;;;;;5090155;27;20195;-67
2023/02/23 08:56:07;;;;;;;28.77;18.27;;;13.00;99.90;;;;;;5094821;28;20198;-67
2023/02/23 08:58:33;;;;;;;23.73;16.93;;;13.10;99.90;;;;;;5089102;27;20194;-68
2023/02/23 09:00:59;;;;;;;25.93;18.90;;;13.00;99.90;;;;;;5094045;28;20431;-68
2023/02/23 09:03:28;;;;;;;24.13;16.83;;;13.00;99.90;;;;;;5094372;27;20463;-69
2023/02/23 09:05:55;;;;;;;23.60;17.70;;;12.90;99.90;;;;;;5089908;27;20955;-67
2023/02/23 09:08:21;;;;;;;27.13;17.57;;;13.00;99.90;;;;;;5095126;27;20882;-67
2023/02/23 09:10:47;;;;;;;22.67;16.80;;;13.10;99.90;;;;;;5092178;27;20431;-68
2023/02/23 09:13:14;;;;;;;21.60;15.50;;;13.10;99.90;;;;;;5096416;27;20958;-67
2023/02/23 09:15:40;;;;;;;18.40;14.03;;;13.10;99.90;;;;;;5092924;27;20170;-69
2023/02/23 09:18:07;;;;;;;21.03;13.70;;;13.10;99.90;;;;;;5094913;27;20567;-68
2023/02/23 09:20:33;;;;;;;22.00;14.47;;;13.10;99.90;;;;;;5089592;27;20487;-67
2023/02/23 09:22:59;;;;;;;22.03;14.20;;;13.20;99.90;;;;;;5092362;27;21100;-67
2023/02/23 09:25:26;;;;;;;21.20;14.20;;;13.30;99.90;;;;;;5096193;27;20714;-68
2023/02/23 09:27:52;;;;;;;20.63;14.70;;;13.40;99.90;;;;;;5077266;28;20667;-66
2023/02/23 09:30:21;;;;;;;23.60;15.10;;;13.40;99.90;;;;;;5092803;27;20462;-67
2023/02/23 09:32:48;;;;;;;23.97;15.07;;;13.50;99.90;;;;;;5099066;27;20442;-67
2023/02/23 09:35:16;;;;;;;19.47;14.77;;;13.50;99.90;;;;;;5091194;27;20478;-66
2023/02/23 09:37:46;;;;;;;21.23;14.70;;;13.50;99.90;;;;;;5094641;27;20454;-68
2023/02/23 09:40:42;;;;;;;19.53;15.50;;;13.60;99.90;;;;;;5093834;28;20447;-68
2023/02/23 09:43:15;;;;;;;31.80;14.47;;;13.60;99.90;;;;;;5090444;27;20416;-67
2023/02/23 09:45:55;;;;;;;30.33;15.70;;;13.70;99.90;;;;;;5089902;27;21098;-67
2023/02/23 09:48:24;;;;;;;23.90;14.70;;;13.80;99.90;;;;;;5095261;28;20439;-66
2023/02/23 09:50:56;;;;;;;27.70;15.80;;;13.80;99.90;;;;;;5092941;27;20439;-77
2023/02/23 09:53:24;;;;;;;21.97;15.43;;;13.90;99.90;;;;;;5096549;27;20455;-77
2023/02/23 09:55:53;;;;;;;22.30;15.00;;;13.90;99.90;;;;;;5092070;27;20453;-76
2023/02/23 09:58:37;;;;;;;24.47;18.37;;;13.90;99.90;;;;;;5072118;27;20456;-78
2023/02/23 10:01:40;;;;;;;20.27;14.47;;;14.00;99.90;;;;;;5096328;27;20883;-73
2023/02/23 10:04:24;;;;;;;21.90;15.00;;;14.00;99.90;;;;;;5094793;27;20936;-74
2023/02/23 10:06:59;;;;;;;23.73;15.70;;;14.10;99.90;;;;;;5096914;27;20455;-77
2023/02/23 10:10:01;;;;;;;20.20;14.40;;;14.10;99.90;;;;;;5097477;27;20511;-76
2023/02/23 10:13:04;;;;;;;21.00;14.70;;;14.20;99.90;;;;;;5087143;28;20443;-78
2023/02/23 10:15:41;;;;;;;20.77;15.90;;;14.20;99.90;;;;;;5095434;27;20504;-68
2023/02/23 10:18:26;;;;;;;22.93;15.30;;;14.30;99.90;;;;;;5089295;27;20497;-67
2023/02/23 10:20:58;;;;;;;22.40;16.20;;;14.30;99.90;;;;;;5091585;27;20451;-67
2023/02/23 10:23:45;;;;;;;21.63;15.90;;;14.30;99.90;;;;;;5091664;27;20855;-66
2023/02/23 10:26:16;;;;;;;22.33;15.03;;;14.30;99.90;;;;;;5092998;27;20520;-66
2023/02/23 10:28:42;;;;;;;26.97;15.70;;;14.40;99.90;;;;;;5088552;27;20439;-66
2023/02/23 10:31:36;;;;;;;20.10;15.87;;;14.30;99.90;;;;;;5093855;27;20435;-66
2023/02/23 10:34:08;;;;;;;22.47;15.93;;;14.20;99.90;;;;;;5095568;27;20437;-66
2023/02/23 10:36:38;;;;;;;23.80;16.30;;;14.20;99.90;;;;;;5091176;28;20452;-66
2023/02/23 10:39:06;;;;;;;24.70;16.27;;;14.10;99.90;;;;;;5091820;27;20486;-66
2023/02/23 10:41:32;;;;;;;23.10;16.87;;;14.10;99.90;;;;;;5088383;28;20451;-66
2023/02/23 10:43:58;;;;;;;25.33;18.53;;;14.20;99.90;;;;;;5092760;27;20457;-66
2023/02/23 10:46:30;;;;;;;21.87;15.40;;;14.20;99.90;;;;;;5090746;28;20477;-66
2023/02/23 10:48:59;;;;;;;20.67;15.70;;;14.30;99.90;;;;;;5088307;28;21536;-66
2023/02/23 10:51:29;;;;;;;22.70;15.70;;;14.30;99.90;;;;;;5092311;28;20821;-66
2023/02/23 10:53:54;;;;;;;23.20;15.77;;;14.30;99.90;;;;;;5087456;27;20954;-66
2023/02/23 10:56:22;;;;;;;20.47;15.67;;;14.30;99.90;;;;;;5087997;28;20548;-66
2023/02/23 10:58:50;;;;;;;20.57;15.53;;;14.30;99.90;;;;;;5091740;28;20213;-66
2023/02/23 11:01:43;;;;;;;22.73;15.50;;;14.10;99.90;;;;;;5090195;28;20439;-65
2023/02/23 11:04:29;;;;;;;19.53;14.27;;;14.20;99.90;;;;;;5094129;28;20484;-66
2023/02/23 11:07:16;;;;;;;24.20;13.47;;;14.30;99.90;;;;;;5087128;28;20468;-66
2023/02/23 11:09:42;;;;;;;18.63;13.90;;;14.30;99.90;;;;;;5091670;27;20442;-66
2023/02/23 11:12:24;;;;;;;21.77;14.80;;;14.30;99.90;;;;;;5088575;28;20455;-66
2023/02/23 11:14:55;;;;;;;17.97;13.47;;;14.30;99.90;;;;;;5089296;27;20187;-66
2023/02/23 11:17:36;;;;;;;20.13;13.80;;;14.30;99.90;;;;;;5087180;27;20542;-66
2023/02/23 11:20:17;;;;;;;16.70;13.00;;;14.30;99.90;;;;;;5093915;28;20494;-68
2023/02/23 11:22:43;;;;;;;19.90;13.93;;;14.40;99.90;;;;;;5090748;27;20442;-66
2023/02/23 11:25:24;;;;;;;22.23;14.23;;;14.50;99.90;;;;;;5090005;27;20416;-66
2023/02/23 11:27:52;;;;;;;21.23;13.57;;;14.50;99.90;;;;;;5085053;27;20964;-66
2023/02/23 11:30:24;;;;;;;18.63;12.50;;;14.50;99.90;;;;;;5088768;28;20431;-66
2023/02/23 11:32:56;;;;;;;18.17;14.23;;;14.50;99.90;;;;;;5090017;28;20795;-66
2023/02/23 11:35:21;;;;;;;20.37;13.27;;;14.50;99.90;;;;;;5090487;28;20444;-66
2023/02/23 11:37:48;;;;;;;19.20;13.53;;;14.50;99.90;;;;;;5090384;28;20458;-66
2023/02/23 11:40:26;;;;;;;23.60;13.50;;;14.50;99.90;;;;;;5092450;28;20186;-65
2023/02/23 11:42:56;;;;;;;17.97;13.80;;;14.40;99.90;;;;;;5092155;28;20907;-65
2023/02/23 11:45:26;;;;;;;20.07;13.90;;;14.50;99.90;;;;;;5090419;28;20441;-66
2023/02/23 11:47:54;;;;;;;19.13;13.90;;;14.50;99.90;;;;;;5092269;28;20455;-66
2023/02/23 11:50:31;;;;;;;20.70;14.63;;;14.60;99.90;;;;;;5089646;28;20443;-66
2023/02/23 11:53:13;;;;;;;18.50;14.60;;;14.60;99.90;;;;;;5091471;28;20485;-65
2023/02/23 11:55:39;;;;;;;18.37;13.40;;;14.70;99.90;;;;;;5093252;28;20838;-66
2023/02/23 11:58:19;;;;;;;18.90;13.33;;;14.70;99.90;;;;;;5090860;28;20451;-65
2023/02/23 12:00:58;;;;;;;20.10;13.50;;;14.60;99.90;;;;;;5086355;28;20447;-66
2023/02/23 12:03:26;;;;;;;16.30;12.63;;;14.60;99.90;;;;;;5088306;28;20436;-65
2023/02/23 12:05:56;;;;;;;18.30;13.53;;;14.70;99.90;;;;;;5087851;28;20815;-66
2023/02/23 12:08:46;;;;;;;17.20;12.13;;;14.70;99.90;;;;;;5091762;28;20439;-66
2023/02/23 12:11:22;;;;;;;17.57;13.23;;;14.70;99.90;;;;;;5093873;28;20811;-66
2023/02/23 12:13:58;;;;;;;18.73;13.50;;;14.60;99.90;;;;;;5088446;28;20450;-65
2023/02/23 12:16:40;;;;;;;17.50;12.30;;;14.70;99.90;;;;;;5090223;28;20829;-65
2023/02/23 12:19:14;;;;;;;16.77;12.63;;;14.60;99.90;;;;;;5089237;28;20495;-66
2023/02/23 12:21:56;;;;;;;23.83;13.27;;;14.70;99.90;;;;;;5067661;28;20558;-66
2023/02/23 12:24:36;;;;;;;16.03;11.80;;;14.90;99.90;;;;;;5090054;28;20423;-66
2023/02/23 12:27:12;;;;;;;16.70;11.80;;;14.80;99.90;;;;;;5073899;28;20940;-65
2023/02/23 12:29:43;;;;;;;17.03;11.43;;;14.80;99.90;;;;;;5074935;28;20515;-67
2023/02/23 12:32:18;;;;;;;16.03;11.43;;;14.90;99.90;;;;;;5091284;28;20450;-67
2023/02/23 12:34:59;;;;;;;15.37;12.13;;;15.00;99.90;;;;;;5087282;28;20450;-66
2023/02/23 12:37:49;;;;;;;19.70;12.00;;;14.90;99.90;;;;;;5091038;28;20967;-67
2023/02/23 12:40:27;;;;;;;14.50;11.10;;;14.90;99.90;;;;;;5085332;28;20439;-65
2023/02/23 12:43:18;;;;;;;18.03;11.00;;;15.00;99.90;;;;;;5089433;28;20413;-64
2023/02/23 12:46:01;;;;;;;16.70;13.10;;;15.00;99.90;;;;;;5084122;28;20472;-65
2023/02/23 12:48:34;;;;;;;15.50;10.37;;;14.90;99.90;;;;;;5074880;28;20427;-65
2023/02/23 12:51:04;;;;;;;14.00;11.13;;;15.00;99.90;;;;;;5090795;28;20443;-67
2023/02/23 12:53:41;;;;;;;14.87;10.30;;;15.00;99.90;;;;;;5095558;27;20422;-66
2023/02/23 12:56:44;;;;;;;14.67;10.27;;;15.20;99.90;;;;;;5093712;27;20929;-66
2023/02/23 12:59:16;;;;;;;18.60;10.27;;;15.10;99.90;;;;;;5097973;27;20548;-66
2023/02/23 13:01:50;;;;;;;15.63;10.60;;;15.00;99.90;;;;;;5097332;27;21097;-66
2023/02/23 13:04:40;;;;;;;14.33;10.80;;;15.10;99.90;;;;;;5077898;28;20514;-65
2023/02/23 13:07:33;;;;;;;15.93;9.80;;;15.10;99.90;;;;;;5093131;28;20468;-67
2023/02/23 13:10:26;;;;;;;19.07;11.60;;;15.20;99.90;;;;;;5095473;27;20531;-67
2023/02/23 13:13:10;;;;;;;13.37;10.50;;;15.20;99.90;;;;;;5078097;28;20444;-67
2023/02/23 13:15:54;;;;;;;14.93;10.80;;;15.00;99.90;;;;;;5096798;27;20431;-66
2023/02/23 13:18:42;;;;;;;19.33;10.87;;;14.90;99.90;;;;;;5098704;27;20488;-65
2023/02/23 13:21:29;;;;;;;15.13;10.23;;;15.00;99.90;;;;;;5096560;27;20432;-65
2023/02/23 13:24:01;;;;;;;15.87;9.93;;;15.20;99.90;;;;;;5079459;28;20436;-65
2023/02/23 13:26:41;;;;;;;13.00;8.87;;;15.10;99.90;;;;;;5093548;28;20784;-66
2023/02/23 13:29:25;;;;;;;18.67;11.27;;;15.10;99.90;;;;;;5096032;27;20428;-65
2023/02/23 13:31:51;;;;;;;12.77;9.43;;;15.10;99.90;;;;;;5089178;27;20436;-66
2023/02/23 13:34:29;;;;;;;13.63;10.33;;;15.00;99.90;;;;;;5092847;27;21120;-66
2023/02/23 13:36:57;;;;;;;11.80;9.30;;;15.00;99.90;;;;;;5092518;27;20213;-67
2023/02/23 13:39:58;;;;;;;14.03;9.10;;;15.00;99.90;;;;;;5091972;28;20534;-67
2023/02/23 13:42:57;;;;;;;15.30;9.50;;;15.00;99.90;;;;;;5079247;28;20448;-65
2023/02/23 13:45:49;;;;;;;14.73;10.30;;;15.10;99.90;;;;;;5096177;27;20438;-66
2023/02/23 13:48:27;;;;;;;14.50;10.03;;;15.10;99.90;;;;;;5098110;27;20459;-66
2023/02/23 13:51:25;;;;;;;12.10;9.87;;;15.20;99.90;;;;;;5092243;27;20497;-66
2023/02/23 13:53:57;;;;;;;15.40;9.60;;;15.10;99.90;;;;;;5060943;28;20431;-67
2023/02/23 13:56:25;;;;;;;19.90;10.23;;;15.10;99.90;;;;;;5094223;28;20507;-68
2023/02/23 13:58:57;;;;;;;12.20;9.60;;;15.00;99.90;;;;;;5092703;27;20808;-68
2023/02/23 14:01:32;;;;;;;14.27;9.30;;;15.10;99.90;;;;;;5094685;27;22615;-68
2023/02/23 14:04:01;;;;;;;14.97;10.60;;;15.00;99.90;;;;;;5072311;28;20416;-67
2023/02/23 14:06:30;;;;;;;14.77;10.37;;;15.00;99.90;;;;;;5095852;27;20450;-68
2023/02/23 14:09:22;;;;;;;18.30;11.27;;;15.00;99.90;;;;;;5090023;28;20459;-67